sensor_id;sensor_type;location;lat;lon;timestamp;P1;durP1;ratioP1;P2;durP2;ratioP2
60203;SDS011;46068;52.132;4.618;2023-06-22T00:01:17;32.47;;;20.90;;
60203;SDS011;46068;52.132;4.618;2023-06-22T00:03:44;34.08;;;21.38;;
60203;SDS011;46068;52.132;4.618;2023-06-22T00:06:10;28.45;;;19.70;;
60203;SDS011;46068;52.132;4.618;2023-06-22T00:08:36;34.65;;;22.42;;
60203;SDS011;46068;52.132;4.618;2023-06-22T00:11:02;32.00;;;21.33;;
60203;SDS011;46068;52.132;4.618;2023-06-22T00:13:30;31.65;;;20.10;;
60203;SDS011;46068;52.132;4.618;2023-06-22T00:15:56;32.20;;;20.50;;
60203;SDS011;46068;52.132;4.618;2023-06-22T00:18:22;31.25;;;20.58;;
60203;SDS011;46068;52.132;4.618;2023-06-22T00:20:52;33.85;;;21.02;;
60203;SDS011;46068;52.132;4.618;2023-06-22T00:23:21;31.58;;;20.63;;
60203;SDS011;46068;52.132;4.618;2023-06-22T00:25:48;34.28;;;20.92;;
60203;SDS011;46068;52.132;4.618;2023-06-22T00:28:15;33.03;;;20.98;;
60203;SDS011;46068;52.132;4.618;2023-06-22T00:30:42;31.73;;;20.60;;
60203;SDS011;46068;52.132;4.618;2023-06-22T00:33:09;35.00;;;20.58;;
60203;SDS011;46068;52.132;4.618;2023-06-22T00:35:35;31.08;;;20.75;;
60203;SDS011;46068;52.132;4.618;2023-06-22T00:38:01;32.30;;;21.10;;
60203;SDS011;46068;52.132;4.618;2023-06-22T00:40:29;30.45;;;21.23;;
60203;SDS011;46068;52.132;4.618;2023-06-22T00:42:56;34.88;;;22.67;;
60203;SDS011;46068;52.132;4.618;2023-06-22T00:45:23;37.03;;;22.90;;
60203;SDS011;46068;52.132;4.618;2023-06-22T00:47:51;35.78;;;22.90;;
60203;SDS011;46068;52.132;4.618;2023-06-22T00:50:18;34.25;;;21.98;;
60203;SDS011;46068;52.132;4.618;2023-06-22T00:52:46;34.35;;;22.08;;
60203;SDS011;46068;52.132;4.618;2023-06-22T00:55:12;31.08;;;21.63;;
60203;SDS011;46068;52.132;4.618;2023-06-22T00:57:39;32.78;;;21.75;;
60203;SDS011;46068;52.132;4.618;2023-06-22T01:00:06;36.90;;;21.40;;
60203;SDS011;46068;52.132;4.618;2023-06-22T01:02:34;37.33;;;22.83;;
60203;SDS011;46068;52.132;4.618;2023-06-22T01:05:03;37.45;;;22.30;;
60203;SDS011;46068;52.132;4.618;2023-06-22T01:07:31;33.13;;;21.63;;
60203;SDS011;46068;52.132;4.618;2023-06-22T01:09:59;32.38;;;21.17;;
60203;SDS011;46068;52.132;4.618;2023-06-22T01:12:30;32.88;;;22.10;;
60203;SDS011;46068;52.132;4.618;2023-06-22T01:14:58;33.50;;;22.13;;
60203;SDS011;46068;52.132;4.618;2023-06-22T01:17:27;32.97;;;22.10;;
60203;SDS011;46068;52.132;4.618;2023-06-22T01:19:55;35.08;;;21.90;;
60203;SDS011;46068;52.132;4.618;2023-06-22T01:22:23;31.92;;;20.88;;
60203;SDS011;46068;52.132;4.618;2023-06-22T01:24:51;33.97;;;21.27;;
60203;SDS011;46068;52.132;4.618;2023-06-22T01:27:31;33.90;;;21.27;;
60203;SDS011;46068;52.132;4.618;2023-06-22T01:29:59;30.63;;;19.80;;
60203;SDS011;46068;52.132;4.618;2023-06-22T01:32:28;31.40;;;21.02;;
60203;SDS011;46068;52.132;4.618;2023-06-22T01:34:56;28.70;;;19.90;;
60203;SDS011;46068;52.132;4.618;2023-06-22T01:37:24;32.85;;;20.88;;
60203;SDS011;46068;52.132;4.618;2023-06-22T01:39:51;35.13;;;22.08;;
60203;SDS011;46068;52.132;4.618;2023-06-22T01:42:17;36.55;;;22.73;;
60203;SDS011;46068;52.132;4.618;2023-06-22T01:44:43;31.92;;;21.15;;
60203;SDS011;46068;52.132;4.618;2023-06-22T01:47:11;32.33;;;20.77;;
60203;SDS011;46068;52.132;4.618;2023-06-22T01:49:38;32.53;;;21.42;;
60203;SDS011;46068;52.132;4.618;2023-06-22T01:52:05;32.05;;;20.17;;
60203;SDS011;46068;52.132;4.618;2023-06-22T01:54:32;32.38;;;21.88;;
60203;SDS011;46068;52.132;4.618;2023-06-22T01:56:58;30.35;;;19.65;;
60203;SDS011;46068;52.132;4.618;2023-06-22T01:59:25;34.17;;;21.30;;
60203;SDS011;46068;52.132;4.618;2023-06-22T02:01:54;36.42;;;22.80;;
60203;SDS011;46068;52.132;4.618;2023-06-22T02:04:26;35.50;;;22.95;;
60203;SDS011;46068;52.132;4.618;2023-06-22T02:06:54;35.25;;;23.17;;
60203;SDS011;46068;52.132;4.618;2023-06-22T02:09:21;35.05;;;22.10;;
60203;SDS011;46068;52.132;4.618;2023-06-22T02:11:48;35.50;;;22.08;;
60203;SDS011;46068;52.132;4.618;2023-06-22T02:14:16;36.45;;;21.95;;
60203;SDS011;46068;52.132;4.618;2023-06-22T02:16:43;36.33;;;22.55;;
60203;SDS011;46068;52.132;4.618;2023-06-22T02:19:10;35.20;;;22.05;;
60203;SDS011;46068;52.132;4.618;2023-06-22T02:21:37;32.75;;;21.05;;
60203;SDS011;46068;52.132;4.618;2023-06-22T02:24:04;34.88;;;20.95;;
60203;SDS011;46068;52.132;4.618;2023-06-22T02:26:30;33.42;;;21.05;;
60203;SDS011;46068;52.132;4.618;2023-06-22T02:28:57;33.80;;;21.20;;
60203;SDS011;46068;52.132;4.618;2023-06-22T02:31:23;35.08;;;21.08;;
60203;SDS011;46068;52.132;4.618;2023-06-22T02:33:55;35.58;;;20.48;;
60203;SDS011;46068;52.132;4.618;2023-06-22T02:36:22;30.20;;;19.25;;
60203;SDS011;46068;52.132;4.618;2023-06-22T02:38:50;32.22;;;19.85;;
60203;SDS011;46068;52.132;4.618;2023-06-22T02:41:16;33.50;;;20.40;;
60203;SDS011;46068;52.132;4.618;2023-06-22T02:43:43;28.75;;;18.50;;
60203;SDS011;46068;52.132;4.618;2023-06-22T02:46:10;26.10;;;16.40;;
60203;SDS011;46068;52.132;4.618;2023-06-22T02:48:36;28.00;;;16.85;;
60203;SDS011;46068;52.132;4.618;2023-06-22T02:51:02;24.02;;;17.02;;
60203;SDS011;46068;52.132;4.618;2023-06-22T02:53:28;27.23;;;16.17;;
60203;SDS011;46068;52.132;4.618;2023-06-22T02:55:57;23.25;;;14.27;;
60203;SDS011;46068;52.132;4.618;2023-06-22T02:58:23;20.38;;;12.25;;
60203;SDS011;46068;52.132;4.618;2023-06-22T03:00:50;20.42;;;13.88;;
60203;SDS011;46068;52.132;4.618;2023-06-22T03:03:18;24.13;;;15.70;;
60203;SDS011;46068;52.132;4.618;2023-06-22T03:05:44;27.92;;;18.17;;
60203;SDS011;46068;52.132;4.618;2023-06-22T03:08:10;27.00;;;17.38;;
60203;SDS011;46068;52.132;4.618;2023-06-22T03:10:36;29.70;;;18.90;;
60203;SDS011;46068;52.132;4.618;2023-06-22T03:13:04;30.52;;;18.80;;
60203;SDS011;46068;52.132;4.618;2023-06-22T03:15:30;31.25;;;18.55;;
60203;SDS011;46068;52.132;4.618;2023-06-22T03:17:58;26.70;;;16.83;;
60203;SDS011;46068;52.132;4.618;2023-06-22T03:20:24;23.00;;;15.57;;
60203;SDS011;46068;52.132;4.618;2023-06-22T03:22:52;24.15;;;14.63;;
60203;SDS011;46068;52.132;4.618;2023-06-22T03:25:18;24.98;;;16.15;;
60203;SDS011;46068;52.132;4.618;2023-06-22T03:27:44;23.02;;;15.18;;
60203;SDS011;46068;52.132;4.618;2023-06-22T03:30:12;25.83;;;16.02;;
60203;SDS011;46068;52.132;4.618;2023-06-22T03:32:38;28.70;;;17.42;;
60203;SDS011;46068;52.132;4.618;2023-06-22T03:35:05;28.00;;;17.48;;
60203;SDS011;46068;52.132;4.618;2023-06-22T03:37:32;25.77;;;16.42;;
60203;SDS011;46068;52.132;4.618;2023-06-22T03:39:58;27.35;;;17.23;;
60203;SDS011;46068;52.132;4.618;2023-06-22T03:42:25;25.42;;;16.45;;
60203;SDS011;46068;52.132;4.618;2023-06-22T03:44:51;29.30;;;17.38;;
60203;SDS011;46068;52.132;4.618;2023-06-22T03:47:19;33.92;;;21.05;;
60203;SDS011;46068;52.132;4.618;2023-06-22T03:49:45;36.10;;;21.23;;
60203;SDS011;46068;52.132;4.618;2023-06-22T03:52:11;37.20;;;21.80;;
60203;SDS011;46068;52.132;4.618;2023-06-22T03:54:38;33.55;;;20.83;;
60203;SDS011;46068;52.132;4.618;2023-06-22T03:57:04;29.80;;;19.10;;
60203;SDS011;46068;52.132;4.618;2023-06-22T03:59:31;36.63;;;20.77;;
60203;SDS011;46068;52.132;4.618;2023-06-22T04:01:57;39.00;;;21.88;;
60203;SDS011;46068;52.132;4.618;2023-06-22T04:04:25;40.50;;;23.77;;
60203;SDS011;46068;52.132;4.618;2023-06-22T04:06:51;39.53;;;23.23;;
60203;SDS011;46068;52.132;4.618;2023-06-22T04:09:17;39.55;;;23.48;;
60203;SDS011;46068;52.132;4.618;2023-06-22T04:11:44;37.47;;;22.80;;
60203;SDS011;46068;52.132;4.618;2023-06-22T04:14:10;38.25;;;22.85;;
60203;SDS011;46068;52.132;4.618;2023-06-22T04:16:36;37.20;;;22.55;;
60203;SDS011;46068;52.132;4.618;2023-06-22T04:19:02;38.65;;;23.95;;
60203;SDS011;46068;52.132;4.618;2023-06-22T04:21:30;38.92;;;22.52;;
60203;SDS011;46068;52.132;4.618;2023-06-22T04:23:56;39.78;;;23.27;;
60203;SDS011;46068;52.132;4.618;2023-06-22T04:26:22;36.35;;;22.13;;
60203;SDS011;46068;52.132;4.618;2023-06-22T04:28:49;39.75;;;22.40;;
60203;SDS011;46068;52.132;4.618;2023-06-22T04:31:16;35.45;;;21.42;;
60203;SDS011;46068;52.132;4.618;2023-06-22T04:33:42;35.05;;;21.67;;
60203;SDS011;46068;52.132;4.618;2023-06-22T04:36:09;35.67;;;21.48;;
60203;SDS011;46068;52.132;4.618;2023-06-22T04:38:40;36.42;;;22.80;;
60203;SDS011;46068;52.132;4.618;2023-06-22T04:41:07;34.38;;;20.77;;
60203;SDS011;46068;52.132;4.618;2023-06-22T04:43:35;35.38;;;21.13;;
60203;SDS011;46068;52.132;4.618;2023-06-22T04:46:01;32.17;;;20.33;;
60203;SDS011;46068;52.132;4.618;2023-06-22T04:48:28;37.05;;;21.60;;
60203;SDS011;46068;52.132;4.618;2023-06-22T04:50:57;32.70;;;21.27;;
60203;SDS011;46068;52.132;4.618;2023-06-22T04:53:28;36.80;;;22.85;;
60203;SDS011;46068;52.132;4.618;2023-06-22T04:55:56;29.92;;;19.13;;
60203;SDS011;46068;52.132;4.618;2023-06-22T04:58:22;31.83;;;20.58;;
60203;SDS011;46068;52.132;4.618;2023-06-22T05:00:52;35.33;;;21.05;;
60203;SDS011;46068;52.132;4.618;2023-06-22T05:03:18;35.95;;;20.80;;
60203;SDS011;46068;52.132;4.618;2023-06-22T05:05:44;31.38;;;18.52;;
60203;SDS011;46068;52.132;4.618;2023-06-22T05:08:11;31.45;;;19.23;;
60203;SDS011;46068;52.132;4.618;2023-06-22T05:10:38;28.67;;;17.63;;
60203;SDS011;46068;52.132;4.618;2023-06-22T05:13:05;31.13;;;19.27;;
60203;SDS011;46068;52.132;4.618;2023-06-22T05:15:31;31.42;;;18.27;;
60203;SDS011;46068;52.132;4.618;2023-06-22T05:18:01;27.92;;;18.60;;
60203;SDS011;46068;52.132;4.618;2023-06-22T05:20:30;29.90;;;17.73;;
60203;SDS011;46068;52.132;4.618;2023-06-22T05:22:56;28.05;;;17.25;;
60203;SDS011;46068;52.132;4.618;2023-06-22T05:25:23;26.10;;;16.73;;
60203;SDS011;46068;52.132;4.618;2023-06-22T05:27:49;26.25;;;16.08;;
60203;SDS011;46068;52.132;4.618;2023-06-22T05:30:18;27.02;;;17.95;;
60203;SDS011;46068;52.132;4.618;2023-06-22T05:32:44;28.27;;;16.77;;
60203;SDS011;46068;52.132;4.618;2023-06-22T05:35:10;28.67;;;18.17;;
60203;SDS011;46068;52.132;4.618;2023-06-22T05:37:36;23.58;;;14.25;;
60203;SDS011;46068;52.132;4.618;2023-06-22T05:40:03;25.88;;;17.13;;
60203;SDS011;46068;52.132;4.618;2023-06-22T05:42:30;30.95;;;16.38;;
60203;SDS011;46068;52.132;4.618;2023-06-22T05:44:56;28.83;;;17.15;;
60203;SDS011;46068;52.132;4.618;2023-06-22T05:47:25;26.27;;;16.20;;
60203;SDS011;46068;52.132;4.618;2023-06-22T05:49:51;23.88;;;15.32;;
60203;SDS011;46068;52.132;4.618;2023-06-22T05:52:17;25.60;;;15.88;;
60203;SDS011;46068;52.132;4.618;2023-06-22T05:54:44;21.30;;;13.20;;
60203;SDS011;46068;52.132;4.618;2023-06-22T05:57:10;20.15;;;12.90;;
60203;SDS011;46068;52.132;4.618;2023-06-22T05:59:36;22.58;;;14.27;;
60203;SDS011;46068;52.132;4.618;2023-06-22T06:02:03;21.98;;;13.18;;
60203;SDS011;46068;52.132;4.618;2023-06-22T06:04:31;22.55;;;14.48;;
60203;SDS011;46068;52.132;4.618;2023-06-22T06:06:57;21.80;;;14.13;;
60203;SDS011;46068;52.132;4.618;2023-06-22T06:09:23;21.98;;;13.75;;
60203;SDS011;46068;52.132;4.618;2023-06-22T06:11:50;20.35;;;12.23;;
60203;SDS011;46068;52.132;4.618;2023-06-22T06:14:16;18.13;;;11.77;;
60203;SDS011;46068;52.132;4.618;2023-06-22T06:16:42;24.88;;;14.13;;
60203;SDS011;46068;52.132;4.618;2023-06-22T06:19:08;19.25;;;11.80;;
60203;SDS011;46068;52.132;4.618;2023-06-22T06:21:36;20.90;;;13.10;;
60203;SDS011;46068;52.132;4.618;2023-06-22T06:24:02;17.67;;;10.45;;
60203;SDS011;46068;52.132;4.618;2023-06-22T06:26:29;19.40;;;12.13;;
60203;SDS011;46068;52.132;4.618;2023-06-22T06:28:58;15.57;;;10.35;;
60203;SDS011;46068;52.132;4.618;2023-06-22T06:31:25;13.32;;;8.63;;
60203;SDS011;46068;52.132;4.618;2023-06-22T06:33:53;15.57;;;9.98;;
60203;SDS011;46068;52.132;4.618;2023-06-22T06:36:19;20.48;;;10.63;;
60203;SDS011;46068;52.132;4.618;2023-06-22T06:38:47;19.90;;;9.70;;
60203;SDS011;46068;52.132;4.618;2023-06-22T06:41:14;12.70;;;8.98;;
60203;SDS011;46068;52.132;4.618;2023-06-22T06:43:41;14.68;;;10.43;;
60203;SDS011;46068;52.132;4.618;2023-06-22T06:46:08;12.50;;;8.90;;
60203;SDS011;46068;52.132;4.618;2023-06-22T06:48:34;18.30;;;9.05;;
60203;SDS011;46068;52.132;4.618;2023-06-22T06:51:01;15.38;;;9.60;;
60203;SDS011;46068;52.132;4.618;2023-06-22T06:53:27;20.60;;;10.50;;
60203;SDS011;46068;52.132;4.618;2023-06-22T06:55:55;16.77;;;9.60;;
60203;SDS011;46068;52.132;4.618;2023-06-22T06:58:21;11.45;;;8.25;;
60203;SDS011;46068;52.132;4.618;2023-06-22T07:00:47;13.50;;;8.88;;
60203;SDS011;46068;52.132;4.618;2023-06-22T07:03:14;12.00;;;8.55;;
60203;SDS011;46068;52.132;4.618;2023-06-22T07:05:40;13.65;;;8.70;;
60203;SDS011;46068;52.132;4.618;2023-06-22T07:08:06;11.52;;;7.78;;
60203;SDS011;46068;52.132;4.618;2023-06-22T07:10:33;10.05;;;7.88;;
60203;SDS011;46068;52.132;4.618;2023-06-22T07:13:01;11.35;;;8.23;;
60203;SDS011;46068;52.132;4.618;2023-06-22T07:15:27;13.73;;;9.07;;
60203;SDS011;46068;52.132;4.618;2023-06-22T07:17:53;15.75;;;10.00;;
60203;SDS011;46068;52.132;4.618;2023-06-22T07:20:19;16.20;;;10.25;;
60203;SDS011;46068;52.132;4.618;2023-06-22T07:22:46;13.55;;;9.35;;
60203;SDS011;46068;52.132;4.618;2023-06-22T07:25:12;15.93;;;9.48;;
60203;SDS011;46068;52.132;4.618;2023-06-22T07:27:43;14.02;;;9.55;;
60203;SDS011;46068;52.132;4.618;2023-06-22T07:30:12;12.38;;;7.40;;
60203;SDS011;46068;52.132;4.618;2023-06-22T07:32:38;12.40;;;7.80;;
60203;SDS011;46068;52.132;4.618;2023-06-22T07:35:05;13.85;;;9.20;;
60203;SDS011;46068;52.132;4.618;2023-06-22T07:37:32;10.85;;;7.40;;
60203;SDS011;46068;52.132;4.618;2023-06-22T07:39:59;12.35;;;7.60;;
60203;SDS011;46068;52.132;4.618;2023-06-22T07:42:25;7.57;;;4.72;;
60203;SDS011;46068;52.132;4.618;2023-06-22T07:44:52;9.93;;;5.28;;
60203;SDS011;46068;52.132;4.618;2023-06-22T07:47:19;11.00;;;6.10;;
60203;SDS011;46068;52.132;4.618;2023-06-22T07:49:50;8.68;;;5.20;;
60203;SDS011;46068;52.132;4.618;2023-06-22T07:52:16;10.65;;;6.25;;
60203;SDS011;46068;52.132;4.618;2023-06-22T07:54:42;9.80;;;6.57;;
60203;SDS011;46068;52.132;4.618;2023-06-22T07:57:09;6.20;;;4.20;;
60203;SDS011;46068;52.132;4.618;2023-06-22T07:59:35;5.57;;;3.80;;
60203;SDS011;46068;52.132;4.618;2023-06-22T08:02:02;6.97;;;3.15;;
60203;SDS011;46068;52.132;4.618;2023-06-22T08:04:30;4.38;;;3.05;;
60203;SDS011;46068;52.132;4.618;2023-06-22T08:06:59;8.98;;;4.18;;
60203;SDS011;46068;52.132;4.618;2023-06-22T08:09:25;4.65;;;3.42;;
60203;SDS011;46068;52.132;4.618;2023-06-22T08:11:51;8.40;;;5.10;;
60203;SDS011;46068;52.132;4.618;2023-06-22T08:14:17;7.85;;;4.53;;
60203;SDS011;46068;52.132;4.618;2023-06-22T08:16:44;6.47;;;4.60;;
60203;SDS011;46068;52.132;4.618;2023-06-22T08:19:10;9.60;;;5.15;;
60203;SDS011;46068;52.132;4.618;2023-06-22T08:21:38;9.88;;;5.57;;
60203;SDS011;46068;52.132;4.618;2023-06-22T08:24:04;11.23;;;6.53;;
60203;SDS011;46068;52.132;4.618;2023-06-22T08:26:32;10.70;;;7.20;;
60203;SDS011;46068;52.132;4.618;2023-06-22T08:29:01;15.18;;;10.73;;
60203;SDS011;46068;52.132;4.618;2023-06-22T08:31:27;14.88;;;10.43;;
60203;SDS011;46068;52.132;4.618;2023-06-22T08:33:53;13.85;;;8.38;;
60203;SDS011;46068;52.132;4.618;2023-06-22T08:36:20;14.95;;;9.90;;
60203;SDS011;46068;52.132;4.618;2023-06-22T08:38:47;14.35;;;9.68;;
60203;SDS011;46068;52.132;4.618;2023-06-22T08:41:16;14.60;;;9.43;;
60203;SDS011;46068;52.132;4.618;2023-06-22T08:43:42;13.38;;;9.85;;
60203;SDS011;46068;52.132;4.618;2023-06-22T08:46:11;11.57;;;7.28;;
60203;SDS011;46068;52.132;4.618;2023-06-22T08:48:37;12.88;;;8.05;;
60203;SDS011;46068;52.132;4.618;2023-06-22T08:51:04;11.50;;;7.53;;
60203;SDS011;46068;52.132;4.618;2023-06-22T08:53:30;11.90;;;8.90;;
60203;SDS011;46068;52.132;4.618;2023-06-22T08:55:58;10.63;;;6.80;;
60203;SDS011;46068;52.132;4.618;2023-06-22T08:58:24;16.95;;;8.48;;
60203;SDS011;46068;52.132;4.618;2023-06-22T09:00:50;12.25;;;6.28;;
60203;SDS011;46068;52.132;4.618;2023-06-22T09:03:17;10.93;;;6.38;;
60203;SDS011;46068;52.132;4.618;2023-06-22T09:05:45;8.48;;;4.55;;
60203;SDS011;46068;52.132;4.618;2023-06-22T09:08:11;13.05;;;6.32;;
60203;SDS011;46068;52.132;4.618;2023-06-22T09:10:38;10.95;;;6.60;;
60203;SDS011;46068;52.132;4.618;2023-06-22T09:13:05;6.60;;;4.38;;
60203;SDS011;46068;52.132;4.618;2023-06-22T09:15:31;11.88;;;5.75;;
60203;SDS011;46068;52.132;4.618;2023-06-22T09:17:59;9.25;;;5.95;;
60203;SDS011;46068;52.132;4.618;2023-06-22T09:20:25;14.55;;;8.02;;
60203;SDS011;46068;52.132;4.618;2023-06-22T09:22:52;7.40;;;5.05;;
60203;SDS011;46068;52.132;4.618;2023-06-22T09:25:18;7.13;;;4.25;;
60203;SDS011;46068;52.132;4.618;2023-06-22T09:27:45;6.63;;;4.47;;
60203;SDS011;46068;52.132;4.618;2023-06-22T09:30:13;10.63;;;6.45;;
60203;SDS011;46068;52.132;4.618;2023-06-22T09:32:39;7.80;;;5.57;;
60203;SDS011;46068;52.132;4.618;2023-06-22T09:35:06;7.00;;;3.95;;
60203;SDS011;46068;52.132;4.618;2023-06-22T09:37:33;6.72;;;3.83;;
60203;SDS011;46068;52.132;4.618;2023-06-22T09:39:59;5.82;;;3.15;;
60203;SDS011;46068;52.132;4.618;2023-06-22T09:42:26;4.47;;;3.28;;
60203;SDS011;46068;52.132;4.618;2023-06-22T09:44:52;5.72;;;3.15;;
60203;SDS011;46068;52.132;4.618;2023-06-22T09:47:19;8.15;;;4.18;;
60203;SDS011;46068;52.132;4.618;2023-06-22T09:49:46;6.47;;;4.45;;
60203;SDS011;46068;52.132;4.618;2023-06-22T09:52:12;9.23;;;6.00;;
60203;SDS011;46068;52.132;4.618;2023-06-22T09:54:38;10.45;;;7.55;;
60203;SDS011;46068;52.132;4.618;2023-06-22T09:57:04;13.98;;;8.23;;
60203;SDS011;46068;52.132;4.618;2023-06-22T09:59:31;11.98;;;9.80;;
60203;SDS011;46068;52.132;4.618;2023-06-22T10:01:57;9.30;;;7.43;;
60203;SDS011;46068;52.132;4.618;2023-06-22T10:04:25;9.93;;;6.43;;
60203;SDS011;46068;52.132;4.618;2023-06-22T10:06:51;11.45;;;6.35;;
60203;SDS011;46068;52.132;4.618;2023-06-22T10:09:17;10.30;;;6.88;;
60203;SDS011;46068;52.132;4.618;2023-06-22T10:11:44;12.07;;;7.32;;
60203;SDS011;46068;52.132;4.618;2023-06-22T10:14:10;12.68;;;7.53;;
60203;SDS011;46068;52.132;4.618;2023-06-22T10:16:36;19.08;;;9.23;;
60203;SDS011;46068;52.132;4.618;2023-06-22T10:19:02;14.43;;;9.52;;
60203;SDS011;46068;52.132;4.618;2023-06-22T10:21:30;11.57;;;7.75;;
60203;SDS011;46068;52.132;4.618;2023-06-22T10:23:57;16.75;;;9.05;;
60203;SDS011;46068;52.132;4.618;2023-06-22T10:26:24;20.05;;;8.90;;
60203;SDS011;46068;52.132;4.618;2023-06-22T10:28:53;11.85;;;8.27;;
60203;SDS011;46068;52.132;4.618;2023-06-22T10:31:20;9.55;;;7.18;;
60203;SDS011;46068;52.132;4.618;2023-06-22T10:33:47;14.38;;;10.27;;
60203;SDS011;46068;52.132;4.618;2023-06-22T10:36:14;17.52;;;10.00;;
60203;SDS011;46068;52.132;4.618;2023-06-22T10:38:42;16.70;;;11.13;;
60203;SDS011;46068;52.132;4.618;2023-06-22T10:41:08;15.70;;;10.75;;
60203;SDS011;46068;52.132;4.618;2023-06-22T10:43:34;19.85;;;11.82;;
60203;SDS011;46068;52.132;4.618;2023-06-22T10:46:01;13.63;;;8.20;;
60203;SDS011;46068;52.132;4.618;2023-06-22T10:48:27;18.98;;;9.90;;
60203;SDS011;46068;52.132;4.618;2023-06-22T10:50:53;15.63;;;9.10;;
60203;SDS011;46068;52.132;4.618;2023-06-22T10:53:19;24.70;;;11.18;;
60203;SDS011;46068;52.132;4.618;2023-06-22T10:55:47;14.48;;;9.73;;
60203;SDS011;46068;52.132;4.618;2023-06-22T10:58:13;18.95;;;12.52;;
60203;SDS011;46068;52.132;4.618;2023-06-22T11:00:40;16.15;;;10.10;;
60203;SDS011;46068;52.132;4.618;2023-06-22T11:03:06;13.38;;;9.75;;
60203;SDS011;46068;52.132;4.618;2023-06-22T11:05:32;15.32;;;9.88;;
60203;SDS011;46068;52.132;4.618;2023-06-22T11:07:59;17.23;;;12.18;;
60203;SDS011;46068;52.132;4.618;2023-06-22T11:10:25;23.08;;;13.07;;
60203;SDS011;46068;52.132;4.618;2023-06-22T11:12:53;20.85;;;13.82;;
60203;SDS011;46068;52.132;4.618;2023-06-22T11:15:20;24.50;;;14.98;;
60203;SDS011;46068;52.132;4.618;2023-06-22T11:17:46;21.83;;;13.20;;
60203;SDS011;46068;52.132;4.618;2023-06-22T11:20:13;18.60;;;12.40;;
60203;SDS011;46068;52.132;4.618;2023-06-22T11:22:39;17.85;;;10.25;;
60203;SDS011;46068;52.132;4.618;2023-06-22T11:25:06;19.88;;;12.20;;
60203;SDS011;46068;52.132;4.618;2023-06-22T11:27:32;18.60;;;13.45;;
60203;SDS011;46068;52.132;4.618;2023-06-22T11:30:00;20.42;;;13.23;;
60203;SDS011;46068;52.132;4.618;2023-06-22T11:32:26;15.63;;;10.80;;
60203;SDS011;46068;52.132;4.618;2023-06-22T11:34:53;15.75;;;11.15;;
60203;SDS011;46068;52.132;4.618;2023-06-22T11:37:19;22.75;;;13.25;;
60203;SDS011;46068;52.132;4.618;2023-06-22T11:39:45;18.05;;;11.23;;
60203;SDS011;46068;52.132;4.618;2023-06-22T11:42:11;17.95;;;11.10;;
60203;SDS011;46068;52.132;4.618;2023-06-22T11:44:38;15.93;;;11.38;;
60203;SDS011;46068;52.132;4.618;2023-06-22T11:47:06;19.77;;;12.18;;
60203;SDS011;46068;52.132;4.618;2023-06-22T11:49:32;16.42;;;10.43;;
60203;SDS011;46068;52.132;4.618;2023-06-22T11:51:58;19.65;;;10.80;;
60203;SDS011;46068;52.132;4.618;2023-06-22T11:54:24;18.15;;;11.38;;
60203;SDS011;46068;52.132;4.618;2023-06-22T11:56:51;16.65;;;10.80;;
60203;SDS011;46068;52.132;4.618;2023-06-22T11:59:17;18.17;;;11.65;;
60203;SDS011;46068;52.132;4.618;2023-06-22T12:01:43;12.95;;;8.35;;
60203;SDS011;46068;52.132;4.618;2023-06-22T12:04:11;23.15;;;14.10;;
60203;SDS011;46068;52.132;4.618;2023-06-22T12:06:37;22.58;;;13.38;;
60203;SDS011;46068;52.132;4.618;2023-06-22T12:09:06;25.25;;;16.23;;
60203;SDS011;46068;52.132;4.618;2023-06-22T12:11:33;20.70;;;14.70;;
60203;SDS011;46068;52.132;4.618;2023-06-22T12:13:59;24.08;;;14.43;;
60203;SDS011;46068;52.132;4.618;2023-06-22T12:16:27;16.30;;;11.38;;
60203;SDS011;46068;52.132;4.618;2023-06-22T12:18:53;20.25;;;13.73;;
60203;SDS011;46068;52.132;4.618;2023-06-22T12:21:21;25.05;;;16.02;;
60203;SDS011;46068;52.132;4.618;2023-06-22T12:23:47;26.60;;;16.05;;
60203;SDS011;46068;52.132;4.618;2023-06-22T12:26:14;24.73;;;16.05;;
60203;SDS011;46068;52.132;4.618;2023-06-22T12:28:40;24.50;;;14.63;;
60203;SDS011;46068;52.132;4.618;2023-06-22T12:31:06;24.55;;;17.00;;
60203;SDS011;46068;52.132;4.618;2023-06-22T12:33:33;23.83;;;15.38;;
60203;SDS011;46068;52.132;4.618;2023-06-22T12:35:59;26.70;;;16.35;;
60203;SDS011;46068;52.132;4.618;2023-06-22T12:38:27;20.60;;;15.30;;
60203;SDS011;46068;52.132;4.618;2023-06-22T12:40:53;21.35;;;15.57;;
60203;SDS011;46068;52.132;4.618;2023-06-22T12:43:19;19.98;;;12.70;;
60203;SDS011;46068;52.132;4.618;2023-06-22T12:45:45;20.17;;;13.40;;
60203;SDS011;46068;52.132;4.618;2023-06-22T12:48:12;23.60;;;15.32;;
60203;SDS011;46068;52.132;4.618;2023-06-22T12:50:38;20.60;;;14.10;;
60203;SDS011;46068;52.132;4.618;2023-06-22T12:53:05;22.38;;;14.98;;
60203;SDS011;46068;52.132;4.618;2023-06-22T12:55:32;21.05;;;14.50;;
60203;SDS011;46068;52.132;4.618;2023-06-22T12:57:58;29.85;;;16.77;;
60203;SDS011;46068;52.132;4.618;2023-06-22T13:00:25;16.33;;;11.82;;
60203;SDS011;46068;52.132;4.618;2023-06-22T13:02:51;20.55;;;12.90;;
60203;SDS011;46068;52.132;4.618;2023-06-22T13:05:17;20.15;;;13.95;;
60203;SDS011;46068;52.132;4.618;2023-06-22T13:07:43;17.65;;;12.70;;
60203;SDS011;46068;52.132;4.618;2023-06-22T13:10:10;20.45;;;12.77;;
60203;SDS011;46068;52.132;4.618;2023-06-22T13:12:38;19.48;;;13.95;;
60203;SDS011;46068;52.132;4.618;2023-06-22T13:15:05;20.83;;;12.65;;
60203;SDS011;46068;52.132;4.618;2023-06-22T13:17:31;18.08;;;11.73;;
60203;SDS011;46068;52.132;4.618;2023-06-22T13:19:57;20.83;;;11.93;;
60203;SDS011;46068;52.132;4.618;2023-06-22T13:22:28;18.55;;;12.52;;
60203;SDS011;46068;52.132;4.618;2023-06-22T13:24:54;19.75;;;12.60;;
60203;SDS011;46068;52.132;4.618;2023-06-22T13:27:21;19.05;;;12.20;;
60203;SDS011;46068;52.132;4.618;2023-06-22T13:29:48;17.90;;;11.68;;
60203;SDS011;46068;52.132;4.618;2023-06-22T13:32:15;20.95;;;12.52;;
60203;SDS011;46068;52.132;4.618;2023-06-22T13:34:41;20.63;;;12.43;;
60203;SDS011;46068;52.132;4.618;2023-06-22T13:37:08;19.42;;;12.45;;
60203;SDS011;46068;52.132;4.618;2023-06-22T13:39:34;17.25;;;11.05;;
60203;SDS011;46068;52.132;4.618;2023-06-22T13:42:00;18.00;;;12.57;;
60203;SDS011;46068;52.132;4.618;2023-06-22T13:44:26;17.90;;;11.93;;
60203;SDS011;46068;52.132;4.618;2023-06-22T13:46:55;17.17;;;11.02;;
60203;SDS011;46068;52.132;4.618;2023-06-22T13:49:21;16.30;;;10.55;;
60203;SDS011;46068;52.132;4.618;2023-06-22T13:51:48;14.27;;;10.13;;
60203;SDS011;46068;52.132;4.618;2023-06-22T13:54:14;14.77;;;9.68;;
60203;SDS011;46068;52.132;4.618;2023-06-22T13:56:40;14.00;;;10.13;;
60203;SDS011;46068;52.132;4.618;2023-06-22T13:59:06;18.10;;;10.20;;
60203;SDS011;46068;52.132;4.618;2023-06-22T14:01:34;14.52;;;9.57;;
60203;SDS011;46068;52.132;4.618;2023-06-22T14:04:02;15.93;;;10.02;;
60203;SDS011;46068;52.132;4.618;2023-06-22T14:06:28;20.25;;;9.60;;
60203;SDS011;46068;52.132;4.618;2023-06-22T14:08:54;18.65;;;10.45;;
60203;SDS011;46068;52.132;4.618;2023-06-22T14:11:21;13.05;;;8.85;;
60203;SDS011;46068;52.132;4.618;2023-06-22T14:13:47;13.82;;;9.50;;
60203;SDS011;46068;52.132;4.618;2023-06-22T14:16:13;15.98;;;10.50;;
60203;SDS011;46068;52.132;4.618;2023-06-22T14:18:40;15.52;;;10.00;;
60203;SDS011;46068;52.132;4.618;2023-06-22T14:21:07;14.43;;;9.20;;
60203;SDS011;46068;52.132;4.618;2023-06-22T14:23:33;18.25;;;9.60;;